Wetterstation Vordersexau
Wetterdaten: Woche 31.08.15 - 06.09.15 (KW36)
Datum Zeit Temp. A. Feuchte A. Luftdruck Regen Wind Richtung Taupunkt Windchill Windben
06.09.2015 00:00 11,8 C 81 % 1018,7 hPa 20,7 l/m 0,0 km/h O-SO 8,6 C 11,8 C 0,0 km/h
06.09.2015 01:00 11,8 C 83 % 1018,8 hPa 0,0 l/m 0,0 km/h O-SO 9,0 C 11,8 C 0,0 km/h
06.09.2015 02:00 11,6 C 83 % 1018,6 hPa 0,0 l/m 0,0 km/h NW 8,8 C 11,6 C 0,0 km/h
06.09.2015 03:00 11,8 C 83 % 1018,6 hPa 0,0 l/m 0,0 km/h W-NW 9,0 C 11,8 C 0,0 km/h
06.09.2015 04:00 11,6 C 83 % 1018,6 hPa 0,0 l/m 0,0 km/h W 8,8 C 11,6 C 0,0 km/h
06.09.2015 05:00 11,3 C 84 % 1019,0 hPa 0,4 l/m 0,0 km/h W-NW 8,7 C 11,3 C 0,0 km/h
06.09.2015 06:00 11,2 C 84 % 1019,5 hPa 0,0 l/m 0,0 km/h W 8,6 C 11,2 C 0,0 km/h
06.09.2015 07:00 11,3 C 84 % 1020,3 hPa 0,0 l/m 1,9 km/h N-NO 8,7 C 11,3 C 1,1 km/h
06.09.2015 08:00 11,8 C 83 % 1021,0 hPa 0,0 l/m 1,9 km/h O 9,0 C 11,8 C 1,1 km/h
06.09.2015 09:00 12,9 C 78 % 1021,4 hPa 0,0 l/m 0,0 km/h O-SO 9,2 C 12,9 C 0,0 km/h
06.09.2015 10:00 16,3 C 65 % 1021,9 hPa 0,0 l/m 0,0 km/h N-NO 9,7 C 16,3 C 0,0 km/h
06.09.2015 11:00 15,8 C 54 % 1022,2 hPa 0,0 l/m 0,6 km/h W-NW 6,5 C 15,8 C 0,4 km/h
06.09.2015 12:00 19,2 C 46 % 1022,0 hPa 0,0 l/m 9,7 km/h NO 7,3 C 17,9 C 5,4 km/h
06.09.2015 13:00 21,3 C 42 % 1022,2 hPa 0,0 l/m 7,8 km/h N-NO 7,9 C 20,8 C 4,3 km/h
06.09.2015 14:00 19,1 C 42 % 1022,2 hPa 0,0 l/m 3,9 km/h N-NW 5,9 C 19,1 C 2,2 km/h
06.09.2015 15:00 18,3 C 43 % 1022,4 hPa 0,0 l/m 0,0 km/h N 5,5 C 18,3 C 0,0 km/h
06.09.2015 16:00 16,8 C 47 % 1022,6 hPa 0,0 l/m 0,0 km/h NO 5,4 C 16,8 C 0,0 km/h
06.09.2015 17:00 16,9 C 47 % 1022,6 hPa 0,0 l/m 0,0 km/h N-NO 5,5 C 16,9 C 0,0 km/h
06.09.2015 18:00 16,1 C 48 % 1022,8 hPa 0,0 l/m 0,0 km/h N-NO 5,1 C 16,1 C 0,0 km/h
06.09.2015 19:00 14,6 C 53 % 1022,8 hPa 0,0 l/m 0,0 km/h N-NO 5,1 C 14,6 C 0,0 km/h
06.09.2015 20:00 11,8 C 63 % 1023,2 hPa 0,0 l/m 0,0 km/h N-NO 5,0 C 11,8 C 0,0 km/h
06.09.2015 21:00 10,9 C 68 % 1023,7 hPa 0,0 l/m 0,0 km/h N-NO 5,2 C 10,9 C 0,0 km/h
06.09.2015 22:00 10,9 C 70 % 1023,7 hPa 0,0 l/m 0,0 km/h N-NO 5,6 C 10,9 C 0,0 km/h
06.09.2015 23:00 10,9 C 72 % 1024,0 hPa 0,0 l/m 0,0 km/h N-NO 6,1 C 10,9 C 0,0 km/h
Min-Datum _ 06.09.15 06.09.15 06.09.15 - 06.09.15 - 06.09.15 06.09.15 06.09.15
_ Min-Zeit 21:42 13:42 02:42 - 00:42 - 20:42 21:42 00:42
Minimum _ 10,9 C 42 % 1018,6 hPa - 0,0 km/h - 5,0 C 10,9 C 0,0 km/h
Max-Datum _ 06.09.15 06.09.15 06.09.15 06.09.15 06.09.15 - 06.09.15 06.09.15 06.09.15
_ Max-Zeit 13:42 05:42 23:42 00:42 12:42 - 10:42 13:42 12:42
Maximum _ 21,3 C 84 % 1024,0 hPa 20,7 l/m 9,7 km/h
NO
- 9,7 C 20,8 C 5,4 km/h
NO
Durchschnitt _ 14,0 C 66 % 1021,4 hPa #21,1 l/m 1,1 km/h N-NO 7,3 C 13,9 C 0,6 km/h
www.sexauwetter.de